Airfield :
LOGIN :

Register | Disclaimer

   EN    FR    IT 

 










Legend :    VFR   Marginal VFR   IFR   Intensive IFR   Very Intensive IFR
Visi :
Ceiling :
>= 8 km
>= 3000ft
5 to 8 km
1000 to 3000 ft
1500m to 5 km
500 to 1000 ft
800 to 1500m
200 to 500 ft
< 800m
< 200 ft
Symbols :   Thunderstorms  Fog  Heavy snow  Heavy precipitations  Wind > 20 kt
SIGMETs :     Misc.  Thunderstorms  Icing  Turbulence  Mountain Waves  Volcanic Ashes







- Airport Elevation : 138 ft
- IATA code : BIO


LEBB - Bilbao

CURRENT METAR :
  • 171800Z 36007KT 320V030 9999 FEW023 SCT036 23/17 Q1018 NOSIG

EXPIRED METARs :
  • 171730Z 36010KT 9999 FEW027 SCT055 24/17 Q1018 NOSIG
  • 171700Z 35009KT 300V030 9999 FEW027 SCT055 24/17 Q1018 NOSIG
  • 171630Z 34006KT 310V070 9999 FEW030 SCT055 25/16 Q1018 NOSIG
  • 171600Z 34009KT 300V020 9999 FEW025 BKN047 23/17 Q1018 NOSIG
  • 171530Z 34009KT 320V020 9999 FEW027 SCT040 BKN050 24/18 Q1018 NOSIG

TAF TAF LEBB
Valid from the 17 at 18:00 until the 18 at 18:00 UTC


171700Z 1718/1818 33009KT 9999 SCT020 SCT035 TX24/1813Z TN17/1805Z
PROB30
TEMPO 1720/1807 BKN014
PROB30
TEMPO 1804/1806 VRB06KT 4000 DZ BR BKN010
No reported NOTAMs for that airfield.
3 SIGMETs reported for the Madrid FIR (LECM) :
 
Embedded thunderstorms
LECM SIGMET 7 VALID 171719/171900 LEVA
LECM MADRID FIR/UIR EMBD TS OBS AT 1719Z WI N3829 W00245 - N3718 W00252 - N3716 W00215 - N3823 W00157 - N3829 W00245 TOP FL410 MOV S NC=
Embedded thunderstorms
LECM SIGMET 6 VALID 171600/171800 LEVA
LECM MADRID FIR/UIR EMBD TS OBS AT 1542Z E OF LINE N4112 W00147 - N3953 W00153 TOP FL440 STNR NC=
Embedded thunderstorms
LECM SIGMET 5 VALID 171600/171800 LEVA
LECM MADRID FIR/UIR EMBD TS OBS AT 1537Z WI N4033 W00444 - N4014 W00401 - N4120 W00242 - N4115 W00151 - N42 W00147 - N4204 W00324 - N4033 W00444 TOP FL400 STNR NC=



MET'MAP, your aeronautical weather chart ! - Copyright ORBIFLY December 2007 - Disclaimer

ORBIFLY MET'MAP TEAM :

Programming & Development : Alexandra Zaïnal
Concept & Development : Baudouin d'Aumeries
Co-Development & Prog : Marc-Olivier Méhu
Technical & hardware support : Manuel Goepfert

Contact : metmap@orbifly.com




SOURCES & CREDITS :

   NOAA